Time;durP1;ratioP1;P1;durP2;ratioP2;P2;SDS_P1;SDS_P2;PMS_P1;PMS_P2;Temp;Humidity;BMP_temperature;BMP_pressure;BME280_temperature;BME280_humidity;BME280_pressure;Samples;Min_cycle;Max_cycle;Signal;HPM_P1;HPM_P2
2022/11/01 00:04:14;;;;;;;53.10;29.80;;;;;;;13.01;62.93;99277.48;225658;1244;142516;-63
2022/11/01 00:09:17;;;;;;;56.00;31.40;;;;;;;13.03;62.99;99276.23;226747;1241;141339;-62
2022/11/01 00:14:21;;;;;;;58.70;31.10;;;;;;;13.03;63.10;99271.26;225483;1242;139658;-62
2022/11/01 00:19:24;;;;;;;55.10;31.40;;;;;;;13.00;63.07;99266.45;225696;1246;139886;-64
2022/11/01 00:24:29;;;;;;;52.60;30.60;;;;;;;12.95;62.86;99262.58;225600;1245;139703;-64
2022/11/01 00:29:32;;;;;;;53.80;29.40;;;;;;;12.86;63.07;99259.79;226695;1240;139743;-65
2022/11/01 00:34:35;;;;;;;50.80;29.60;;;;;;;12.79;62.86;99260.77;225656;1240;139304;-64
2022/11/01 00:39:38;;;;;;;52.70;29.10;;;;;;;12.73;63.26;99254.46;225602;1245;139785;-64
2022/11/01 00:44:41;;;;;;;52.00;28.90;;;;;;;12.70;63.31;99250.89;225566;1250;139281;-63
2022/11/01 00:49:44;;;;;;;51.10;29.30;;;;;;;12.73;63.35;99250.13;226632;1236;139829;-64
2022/11/01 00:54:47;;;;;;;41.20;24.90;;;;;;;12.77;63.03;99249.70;225608;1243;139764;-64
2022/11/01 00:59:50;;;;;;;47.70;28.00;;;;;;;12.75;63.16;99248.59;225419;1245;139542;-63
2022/11/01 01:04:53;;;;;;;51.80;28.80;;;;;;;12.72;63.07;99247.41;225439;1248;140045;-66
2022/11/01 01:09:57;;;;;;;51.90;28.70;;;;;;;12.66;62.92;99243.73;226316;1237;139439;-64
2022/11/01 01:15:00;;;;;;;53.40;30.20;;;;;;;12.56;62.82;99234.58;226585;1244;139629;-64
2022/11/01 01:20:04;;;;;;;48.50;28.00;;;;;;;12.46;62.87;99226.34;225475;1254;139241;-63
2022/11/01 01:25:09;;;;;;;50.90;28.00;;;;;;;12.37;62.82;99215.36;225423;1245;139362;-63
2022/11/01 01:30:15;;;;;;;49.10;29.50;;;;;;;12.30;63.01;99210.52;225339;1245;139599;-65
2022/11/01 01:35:18;;;;;;;46.80;28.60;;;;;;;12.25;63.16;99208.17;225595;1245;139350;-64
2022/11/01 01:40:21;;;;;;;43.50;27.80;;;;;;;12.26;63.25;99204.76;225743;1250;140489;-64
2022/11/01 01:45:31;;;;;;;42.30;27.20;;;;;;;12.23;63.49;99204.38;226647;1234;139462;-64
2022/11/01 01:50:40;;;;;;;49.00;28.30;;;;;;;12.25;63.66;99204.41;225645;1251;139524;-64
2022/11/01 01:55:59;;;;;;;49.20;28.10;;;;;;;12.25;63.59;99198.19;225174;1243;139732;-62
2022/11/01 02:01:03;;;;;;;46.00;28.30;;;;;;;12.26;63.54;99192.61;225626;1246;140508;-64
2022/11/01 02:06:20;;;;;;;41.40;26.30;;;;;;;12.24;63.35;99196.52;226572;1237;140223;-66
2022/11/01 02:11:24;;;;;;;44.60;27.80;;;;;;;12.17;63.24;99201.11;225583;1247;139491;-65
2022/11/01 02:16:33;;;;;;;43.10;26.60;;;;;;;12.09;63.55;99197.48;225796;1244;139298;-62
2022/11/01 02:21:48;;;;;;;42.20;25.80;;;;;;;12.04;63.53;99186.82;225681;1245;139736;-62
2022/11/01 02:27:01;;;;;;;39.30;25.00;;;;;;;12.00;63.55;99185.42;226467;1238;139746;-64
2022/11/01 02:32:23;;;;;;;38.00;24.60;;;;;;;12.05;63.79;99193.16;225274;1243;139870;-62
2022/11/01 02:37:32;;;;;;;32.70;21.50;;;;;;;12.13;63.90;99192.84;225429;1253;139859;-63
2022/11/01 02:42:41;;;;;;;35.40;22.50;;;;;;;12.19;64.24;99193.30;225496;1248;141002;-63
2022/11/01 02:47:44;;;;;;;34.80;22.30;;;;;;;12.23;64.22;99195.69;225423;1248;139624;-62
2022/11/01 02:52:47;;;;;;;33.50;21.90;;;;;;;12.24;64.34;99193.13;225742;1244;139942;-64
2022/11/01 02:57:50;;;;;;;31.00;21.50;;;;;;;12.23;64.07;99188.39;225496;1244;139467;-63
2022/11/01 03:03:09;;;;;;;33.70;21.50;;;;;;;12.19;63.96;99183.86;225526;1244;139522;-62
2022/11/01 03:08:17;;;;;;;35.50;21.60;;;;;;;12.13;63.96;99192.78;225217;1248;140261;-63
2022/11/01 03:13:36;;;;;;;29.90;22.20;;;;;;;12.04;63.91;99195.14;225297;1247;140197;-62
2022/11/01 03:18:50;;;;;;;31.70;22.70;;;;;;;12.02;63.96;99180.86;225529;1244;140211;-62
2022/11/01 03:24:07;;;;;;;34.30;22.50;;;;;;;12.01;63.73;99177.73;225697;1245;139675;-62
2022/11/01 03:29:11;;;;;;;35.00;24.00;;;;;;;11.98;63.89;99176.83;226806;1234;140074;-64
2022/11/01 03:34:17;;;;;;;37.10;23.10;;;;;;;11.88;63.57;99180.71;225547;1248;139401;-63
2022/11/01 03:39:50;;;;;;;31.60;22.30;;;;;;;11.75;63.67;99173.18;225671;1246;140382;-61
2022/11/01 03:44:58;;;;;;;27.80;22.20;;;;;;;11.64;63.42;99177.63;225341;1247;140054;-65
2022/11/01 03:50:11;;;;;;;32.50;23.10;;;;;;;11.54;63.54;99179.89;226259;1241;139250;-62
2022/11/01 03:55:18;;;;;;;30.00;21.20;;;;;;;11.47;63.54;99180.46;225632;1241;139711;-64
2022/11/01 04:00:32;;;;;;;30.90;20.90;;;;;;;11.39;63.86;99186.49;225754;1249;139905;-61
2022/11/01 04:05:36;;;;;;;36.10;23.00;;;;;;;11.46;64.66;99191.06;225717;1244;141519;-63
2022/11/01 04:10:40;;;;;;;41.10;23.70;;;;;;;11.61;64.91;99186.76;226443;1237;140577;-62
2022/11/01 04:21:10;;;;;;;40.50;24.60;;;;;;;11.86;65.52;99174.66;225619;1242;139782;-64
2022/11/01 04:26:17;;;;;;;39.10;23.00;;;;;;;11.94;65.50;99163.09;225681;1243;139230;-63
2022/11/01 04:31:20;;;;;;;38.20;21.90;;;;;;;11.97;65.33;99157.41;225742;1245;139471;-63
2022/11/01 04:36:23;;;;;;;52.80;23.10;;;;;;;11.94;65.56;99164.52;226600;1246;139798;-63
2022/11/01 04:41:28;;;;;;;39.90;24.70;;;;;;;11.93;65.68;99161.76;225491;1247;140533;-63
2022/11/01 04:46:31;;;;;;;42.80;23.80;;;;;;;11.96;65.70;99164.05;225852;1242;140091;-63
2022/11/01 04:51:34;;;;;;;47.10;23.40;;;;;;;12.04;65.71;99164.92;225541;1245;140760;-65
2022/11/01 04:56:37;;;;;;;42.90;23.80;;;;;;;12.09;65.94;99160.00;225639;1244;139723;-64
2022/11/01 05:01:39;;;;;;;50.60;23.90;;;;;;;12.12;66.07;99154.61;225593;1248;139355;-67
2022/11/01 05:06:43;;;;;;;39.10;23.60;;;;;;;12.14;66.15;99143.45;225380;1238;139427;-67
2022/11/01 05:11:45;;;;;;;84.80;53.70;;;;;;;12.19;66.08;99138.86;225747;1244;140118;-66
2022/11/01 05:16:48;;;;;;;39.10;22.70;;;;;;;12.24;66.45;99138.34;225881;1238;139766;-66
2022/11/01 05:21:51;;;;;;;50.30;24.30;;;;;;;12.29;66.51;99148.52;226593;1237;141244;-65
2022/11/01 05:26:54;;;;;;;57.90;24.80;;;;;;;12.29;66.42;99149.17;226664;1227;140418;-66
2022/11/01 05:31:58;;;;;;;100.80;51.40;;;;;;;12.30;66.85;99142.70;225695;1241;139821;-68
2022/11/01 05:37:01;;;;;;;88.70;25.00;;;;;;;12.35;66.69;99144.90;225511;1243;140078;-66
2022/11/01 05:42:04;;;;;;;84.80;25.30;;;;;;;12.32;66.58;99141.88;225599;1244;139439;-66
2022/11/01 05:47:06;;;;;;;93.90;23.90;;;;;;;12.28;66.78;99143.38;225818;1242;139632;-66
2022/11/01 05:52:09;;;;;;;51.90;23.60;;;;;;;12.26;66.79;99146.21;225738;1238;140671;-65
2022/11/01 05:57:12;;;;;;;43.80;23.90;;;;;;;12.27;67.02;99141.00;225682;1240;140490;-63
2022/11/01 06:02:15;;;;;;;81.10;33.80;;;;;;;12.31;67.03;99138.41;226697;1237;139809;-63
2022/11/01 06:07:18;;;;;;;79.30;26.40;;;;;;;12.35;67.23;99131.41;226586;1246;139256;-62
2022/11/01 06:12:23;;;;;;;54.50;25.00;;;;;;;12.38;67.43;99130.60;225714;1250;138921;-61
2022/11/01 06:17:26;;;;;;;59.20;24.30;;;;;;;12.36;67.10;99137.19;225689;1245;139625;-62
2022/11/01 06:22:29;;;;;;;77.90;27.50;;;;;;;12.34;67.32;99147.85;226642;1230;139775;-63
2022/11/01 06:27:32;;;;;;;43.60;23.50;;;;;;;12.32;67.32;99157.90;226510;1237;139917;-63
2022/11/01 06:32:35;;;;;;;79.20;53.60;;;;;;;12.37;67.25;99150.98;225686;1242;139956;-62
2022/11/01 06:37:38;;;;;;;43.10;24.40;;;;;;;12.39;67.10;99151.22;225679;1241;139988;-63
2022/11/01 06:42:41;;;;;;;44.80;23.80;;;;;;;12.40;67.29;99152.90;225565;1248;140048;-64
2022/11/01 06:47:48;;;;;;;56.40;21.70;;;;;;;12.38;67.32;99152.86;225687;1244;139630;-63
2022/11/01 06:52:56;;;;;;;38.20;20.70;;;;;;;12.34;67.12;99164.35;226593;1234;140288;-62
2022/11/01 06:58:02;;;;;;;35.80;20.40;;;;;;;12.27;66.91;99167.31;225724;1238;139271;-63
2022/11/01 07:03:10;;;;;;;76.60;48.00;;;;;;;12.20;67.21;99174.89;225621;1244;139358;-64
2022/11/01 07:08:13;;;;;;;31.40;20.70;;;;;;;12.19;67.19;99177.65;225767;1244;140999;-65
2022/11/01 07:13:16;;;;;;;28.90;18.90;;;;;;;12.23;67.43;99183.45;225641;1250;139870;-64
2022/11/01 07:18:19;;;;;;;30.60;19.90;;;;;;;12.22;67.26;99180.59;226653;1243;139023;-63
2022/11/01 07:23:22;;;;;;;32.40;19.10;;;;;;;12.21;67.27;99173.77;225643;1237;139674;-65
2022/11/01 07:28:25;;;;;;;37.10;26.10;;;;;;;12.18;66.84;99177.37;226760;1237;139369;-63
2022/11/01 07:33:28;;;;;;;27.50;18.40;;;;;;;12.17;67.20;99162.81;225681;1243;139857;-62
2022/11/01 07:38:31;;;;;;;27.20;16.40;;;;;;;12.21;67.04;99156.89;225714;1240;139344;-62
2022/11/01 07:43:35;;;;;;;24.10;15.90;;;;;;;12.25;67.25;99175.95;225342;1247;140713;-64
2022/11/01 07:48:38;;;;;;;25.60;15.30;;;;;;;12.35;67.17;99177.32;225707;1241;140304;-64
2022/11/01 07:53:41;;;;;;;30.10;16.10;;;;;;;12.40;67.28;99166.80;226583;1230;140270;-65
2022/11/01 07:58:44;;;;;;;25.40;15.20;;;;;;;12.47;67.40;99167.73;225705;1246;140843;-65
2022/11/01 08:03:49;;;;;;;24.80;15.30;;;;;;;12.50;67.40;99154.55;225553;1239;139815;-65
2022/11/01 08:08:52;;;;;;;29.70;14.70;;;;;;;12.51;67.30;99162.84;225559;1242;140768;-67
2022/11/01 08:13:55;;;;;;;25.40;15.40;;;;;;;12.51;67.74;99168.92;226615;1237;139883;-64
2022/11/01 08:19:07;;;;;;;27.70;15.70;;;;;;;12.59;67.58;99172.63;225643;1253;140418;-66
2022/11/01 08:24:10;;;;;;;31.60;16.90;;;;;;;12.71;67.81;99172.66;225517;1238;139720;-66
2022/11/01 08:29:13;;;;;;;30.10;16.30;;;;;;;12.79;67.87;99170.16;225118;1248;139557;-66
2022/11/01 08:34:16;;;;;;;29.90;17.30;;;;;;;12.86;68.02;99172.20;226500;1236;139370;-65
2022/11/01 08:39:19;;;;;;;27.10;16.40;;;;;;;12.94;67.90;99171.07;225702;1249;139086;-65
2022/11/01 08:44:22;;;;;;;31.50;18.70;;;;;;;13.03;68.08;99162.48;225705;1251;139274;-65
2022/11/01 08:49:25;;;;;;;60.10;41.60;;;;;;;13.17;68.15;99152.21;225588;1244;139231;-64
2022/11/01 08:54:28;;;;;;;34.30;18.10;;;;;;;13.28;67.99;99149.52;225658;1240;143109;-64
2022/11/01 08:59:31;;;;;;;26.00;17.30;;;;;;;13.40;67.98;99143.63;225603;1248;139704;-72
2022/11/01 09:04:34;;;;;;;29.20;18.00;;;;;;;13.55;68.24;99147.35;225787;1238;140191;-70
2022/11/01 09:09:36;;;;;;;29.80;18.00;;;;;;;13.72;68.10;99155.08;225526;1248;140319;-70
2022/11/01 09:14:39;;;;;;;28.70;18.00;;;;;;;13.85;68.17;99150.30;225672;1244;140618;-65
2022/11/01 09:19:42;;;;;;;25.50;17.00;;;;;;;13.97;67.86;99159.11;225553;1237;139840;-67
2022/11/01 09:24:45;;;;;;;27.20;16.30;;;;;;;14.00;67.60;99168.00;225716;1237;140182;-64
2022/11/01 09:29:48;;;;;;;40.10;28.60;;;;;;;14.07;67.66;99167.64;226567;1236;141096;-64
2022/11/01 09:34:54;;;;;;;23.40;16.40;;;;;;;14.15;67.48;99162.16;225595;1240;140206;-66
2022/11/01 09:39:56;;;;;;;26.70;16.90;;;;;;;14.28;67.51;99160.73;226540;1237;140391;-67
2022/11/01 09:45:06;;;;;;;26.10;17.00;;;;;;;14.36;67.36;99169.55;226517;1237;140024;-65
2022/11/01 09:50:21;;;;;;;27.70;17.90;;;;;;;14.47;67.29;99164.98;225554;1245;141582;-68
2022/11/01 09:55:50;;;;;;;23.80;16.30;;;;;;;14.57;67.09;99153.17;226598;1239;139632;-67
2022/11/01 10:01:06;;;;;;;24.20;17.20;;;;;;;14.58;66.87;99159.33;225085;1246;140583;-67
2022/11/01 10:06:31;;;;;;;21.90;15.90;;;;;;;14.66;66.72;99146.94;226710;1238;140509;-67
2022/11/01 10:11:37;;;;;;;28.20;17.30;;;;;;;14.87;66.78;99144.23;225491;1237;140361;-66
2022/11/01 10:16:44;;;;;;;;;;;;;;;15.10;66.54;99151.20;225792;1243;139631;-66
2022/11/01 10:21:53;;;;;;;27.90;17.40;;;;;;;15.24;66.43;99146.88;225765;1232;125184;-67
2022/11/01 10:27:17;;;;;;;23.60;16.60;;;;;;;15.40;66.23;99146.34;225319;1231;139619;-65
2022/11/01 10:32:42;;;;;;;24.90;17.60;;;;;;;15.57;65.99;99150.97;226451;1238;140072;-65
2022/11/01 10:38:05;;;;;;;23.40;15.60;;;;;;;15.58;65.40;99148.92;225767;1244;139483;-63
2022/11/01 10:43:26;;;;;;;23.90;16.50;;;;;;;15.55;65.19;99154.04;225629;1239;139498;-64
2022/11/01 10:48:35;;;;;;;20.70;15.00;;;;;;;15.55;65.17;99161.17;225656;1223;139803;-63
2022/11/01 10:54:01;;;;;;;22.20;14.80;;;;;;;15.68;65.39;99149.21;225435;1241;140699;-64
2022/11/01 10:59:14;;;;;;;22.70;15.70;;;;;;;15.84;65.04;99145.13;225774;1245;139627;-65
2022/11/01 11:04:21;;;;;;;140.70;95.10;;;;;;;16.01;65.10;99141.23;226669;1236;139351;-66
2022/11/01 11:09:29;;;;;;;25.90;15.70;;;;;;;16.19;64.96;99133.95;225572;1253;139883;-65
2022/11/01 11:14:33;;;;;;;25.90;15.30;;;;;;;16.27;64.68;99130.21;225669;1244;139867;-66
2022/11/01 11:19:37;;;;;;;51.00;36.90;;;;;;;16.35;64.41;99121.11;225516;1243;139396;-68
2022/11/01 11:24:42;;;;;;;23.80;16.20;;;;;;;16.46;64.45;99120.40;225569;1245;139495;-67
2022/11/01 11:29:59;;;;;;;19.90;15.80;;;;;;;16.60;64.25;99119.20;225515;1242;140430;-67
2022/11/01 11:35:19;;;;;;;24.40;16.10;;;;;;;16.74;63.87;99116.95;225659;1242;139557;-66
2022/11/01 11:40:23;;;;;;;21.20;14.00;;;;;;;16.87;63.65;99114.41;225433;1243;139524;-66
2022/11/01 11:45:28;;;;;;;28.00;14.60;;;;;;;17.01;63.42;99115.30;225421;1244;140157;-67
2022/11/01 11:50:32;;;;;;;16.20;14.40;;;;;;;17.12;63.49;99109.90;225428;1240;139910;-64
2022/11/01 11:55:40;;;;;;;17.90;13.60;;;;;;;17.33;63.23;99108.73;225430;1237;139885;-65
2022/11/01 12:00:48;;;;;;;17.20;13.30;;;;;;;17.47;62.74;99113.91;225294;1246;139283;-65
2022/11/01 12:05:58;;;;;;;21.00;14.30;;;;;;;17.51;62.39;99114.84;225394;1241;139395;-67
2022/11/01 12:11:02;;;;;;;39.10;27.70;;;;;;;17.55;62.09;99101.03;226484;1232;140863;-66
2022/11/01 12:16:17;;;;;;;53.90;41.60;;;;;;;17.56;62.03;99096.24;225320;1245;139614;-66
2022/11/01 12:21:38;;;;;;;20.20;15.90;;;;;;;17.62;61.80;99090.55;225286;1246;139443;-67
2022/11/01 12:26:43;;;;;;;23.40;18.10;;;;;;;17.64;61.63;99088.73;225537;1244;139628;-65
2022/11/01 12:31:48;;;;;;;20.70;17.20;;;;;;;17.71;61.71;99088.48;225574;1229;139972;-64
2022/11/01 12:36:58;;;;;;;21.30;16.10;;;;;;;17.82;61.56;99087.00;225585;1237;138978;-64
2022/11/01 12:42:03;;;;;;;59.00;42.60;;;;;;;17.89;61.34;99079.81;226612;1230;139178;-64
2022/11/01 12:47:35;;;;;;;30.00;16.20;;;;;;;17.92;61.29;99085.96;225518;1251;139332;-63
2022/11/01 12:52:49;;;;;;;19.40;15.20;;;;;;;18.03;61.23;99083.11;225601;1234;140583;-63
2022/11/01 12:57:54;;;;;;;22.70;15.10;;;;;;;18.10;60.88;99086.55;226435;1230;139304;-65
2022/11/01 13:03:30;;;;;;;21.80;14.70;;;;;;;18.09;60.64;99086.59;225545;1245;140092;-65
2022/11/01 13:08:45;;;;;;;36.00;27.50;;;;;;;18.13;60.58;99088.00;226636;1229;138760;-65
2022/11/01 13:14:22;;;;;;;19.20;14.30;;;;;;;18.13;60.27;99085.38;225460;1251;140697;-65
2022/11/01 13:19:54;;;;;;;18.10;13.10;;;;;;;18.07;60.03;99084.31;225392;1239;139485;-65
2022/11/01 13:25:12;;;;;;;16.40;11.70;;;;;;;18.04;60.12;99090.53;225361;1246;139584;-65
2022/11/01 13:30:18;;;;;;;19.70;12.10;;;;;;;18.00;59.91;99091.91;225636;1235;139611;-66
2022/11/01 13:35:30;;;;;;;21.00;12.90;;;;;;;17.96;59.92;99092.30;225882;1246;139334;-63
2022/11/01 13:40:44;;;;;;;17.70;13.00;;;;;;;17.93;59.93;99095.27;225808;1247;139354;-62
2022/11/01 13:46:20;;;;;;;19.10;12.40;;;;;;;17.91;59.94;99098.29;225688;1243;139748;-63
2022/11/01 13:51:44;;;;;;;17.50;13.10;;;;;;;17.92;59.88;99103.28;225685;1249;139545;-65
2022/11/01 13:56:57;;;;;;;21.40;15.20;;;;;;;17.94;59.94;99105.59;225709;1237;139076;-62
2022/11/01 14:02:21;;;;;;;13.80;8.50;;;;;;;17.95;59.85;99106.97;225709;1244;139892;-64
2022/11/01 14:07:32;;;;;;;7.60;5.40;;;;;;;17.94;59.75;99112.02;225632;1237;139248;-64
2022/11/01 14:12:39;;;;;;;13.20;6.00;;;;;;;17.92;59.42;99113.48;225792;1246;138748;-67
2022/11/01 14:17:55;;;;;;;10.60;5.50;;;;;;;17.89;59.19;99111.29;225711;1245;139019;-68
2022/11/01 14:23:32;;;;;;;11.20;5.60;;;;;;;17.85;59.16;99115.92;225764;1245;139730;-68
2022/11/01 14:28:42;;;;;;;8.50;5.40;;;;;;;17.80;58.99;99115.67;226930;1236;139144;-63
2022/11/01 14:33:47;;;;;;;13.30;5.90;;;;;;;17.77;58.91;99123.82;225437;1239;139227;-63
2022/11/01 14:39:20;;;;;;;10.90;5.20;;;;;;;17.70;58.90;99125.68;225499;1246;139347;-62
2022/11/01 14:44:37;;;;;;;11.40;5.80;;;;;;;17.61;58.84;99134.90;225515;1250;140179;-68
2022/11/01 14:49:43;;;;;;;30.70;18.60;;;;;;;17.57;58.87;99140.73;225433;1240;139945;-65
2022/11/01 14:54:51;;;;;;;12.80;6.30;;;;;;;17.50;58.80;99139.00;225379;1247;139518;-67
2022/11/01 14:59:55;;;;;;;9.20;5.10;;;;;;;17.42;58.74;99146.16;225448;1245;139522;-65
2022/11/01 15:05:00;;;;;;;9.90;5.30;;;;;;;17.35;58.55;99153.02;225439;1241;139039;-63
2022/11/01 15:10:13;;;;;;;9.50;5.70;;;;;;;17.27;58.79;99156.27;225311;1245;138993;-63
2022/11/01 15:15:20;;;;;;;21.90;12.30;;;;;;;17.17;58.63;99162.52;225484;1233;142929;-61
2022/11/01 15:20:32;;;;;;;12.20;6.40;;;;;;;17.06;58.64;99159.54;225516;1244;139690;-63
2022/11/01 15:25:36;;;;;;;9.70;5.50;;;;;;;16.94;58.72;99156.10;225354;1246;139322;-62
2022/11/01 15:30:39;;;;;;;14.20;7.60;;;;;;;16.82;58.69;99164.27;225448;1246;139701;-63
2022/11/01 15:35:42;;;;;;;10.70;6.30;;;;;;;16.70;58.62;99168.14;226368;1230;140339;-66
2022/11/01 15:40:45;;;;;;;9.90;5.90;;;;;;;16.57;58.85;99174.30;225492;1248;139575;-63
2022/11/01 15:45:52;;;;;;;12.60;6.30;;;;;;;16.44;58.96;99174.48;225322;1241;139590;-66
2022/11/01 15:51:28;;;;;;;9.30;6.70;;;;;;;16.34;59.00;99183.02;226426;1244;139127;-63
2022/11/01 15:56:41;;;;;;;9.00;6.40;;;;;;;16.23;58.93;99189.33;225273;1239;139219;-64
2022/11/01 16:01:47;;;;;;;57.60;41.40;;;;;;;16.10;59.09;99191.78;226408;1244;139085;-63
2022/11/01 16:07:01;;;;;;;12.10;7.30;;;;;;;16.02;59.26;99200.67;225516;1237;140270;-63
2022/11/01 16:12:16;;;;;;;10.90;6.60;;;;;;;15.95;59.24;99204.17;225411;1243;139150;-62
2022/11/01 16:17:38;;;;;;;10.60;6.60;;;;;;;15.90;59.40;99205.84;225593;1246;139852;-63
2022/11/01 16:22:41;;;;;;;11.40;6.40;;;;;;;15.90;59.41;99213.81;226561;1237;139837;-65
2022/11/01 16:28:10;;;;;;;11.60;6.50;;;;;;;15.92;59.60;99216.60;225583;1247;139840;-63
2022/11/01 16:33:35;;;;;;;10.00;6.70;;;;;;;15.91;59.55;99219.52;225438;1245;139734;-63
2022/11/01 16:38:42;;;;;;;10.40;6.80;;;;;;;15.88;59.68;99223.48;226729;1236;139314;-63
2022/11/01 16:43:48;;;;;;;15.30;9.70;;;;;;;15.80;59.56;99225.39;225646;1246;140099;-63
2022/11/01 16:48:54;;;;;;;10.40;7.00;;;;;;;15.73;59.72;99232.43;226773;1241;138799;-63
2022/11/01 16:54:01;;;;;;;12.50;7.70;;;;;;;15.61;59.65;99237.40;225629;1243;140476;-61
2022/11/01 16:59:11;;;;;;;12.40;7.90;;;;;;;15.51;59.84;99243.55;225743;1241;139585;-64
2022/11/01 17:04:15;;;;;;;14.00;8.30;;;;;;;15.44;59.93;99245.91;226767;1244;138960;-62
2022/11/01 17:09:19;;;;;;;23.80;15.30;;;;;;;15.39;60.01;99244.40;226827;1237;140331;-64
2022/11/01 17:14:22;;;;;;;11.70;7.80;;;;;;;15.29;60.13;99250.67;225517;1230;139767;-62
2022/11/01 17:19:32;;;;;;;11.00;7.50;;;;;;;15.28;60.34;99258.79;226626;1237;139814;-67
2022/11/01 17:24:35;;;;;;;13.30;8.60;;;;;;;15.32;60.54;99263.65;225481;1242;139824;-65
2022/11/01 17:29:38;;;;;;;15.50;8.60;;;;;;;15.32;60.59;99266.73;225585;1247;139836;-63
2022/11/01 17:34:43;;;;;;;12.00;8.30;;;;;;;15.28;60.50;99266.83;225743;1243;139866;-64
2022/11/01 17:39:48;;;;;;;14.40;9.00;;;;;;;15.19;60.49;99274.52;226626;1236;139735;-64
2022/11/01 17:45:29;;;;;;;14.50;9.40;;;;;;;15.13;60.58;99277.70;226205;1237;141626;-64
2022/11/01 17:50:42;;;;;;;19.40;9.70;;;;;;;15.07;60.69;99276.85;225419;1243;139119;-64
2022/11/01 17:56:03;;;;;;;10.20;8.60;;;;;;;15.04;60.84;99282.81;225602;1242;139519;-65
2022/11/01 18:01:17;;;;;;;13.60;9.40;;;;;;;14.98;60.84;99285.45;225440;1236;139666;-63
2022/11/01 18:06:25;;;;;;;17.10;9.60;;;;;;;14.93;60.92;99280.84;225518;1243;139305;-65
2022/11/01 18:11:33;;;;;;;34.90;23.90;;;;;;;14.89;61.21;99286.24;225684;1240;138796;-63
2022/11/01 18:16:43;;;;;;;17.70;10.20;;;;;;;14.88;61.26;99294.36;226461;1231;141491;-63
2022/11/01 18:22:23;;;;;;;15.30;9.70;;;;;;;14.90;61.27;99296.38;226711;1239;141263;-62
2022/11/01 18:27:35;;;;;;;16.80;10.30;;;;;;;14.92;61.47;99297.90;226908;1237;140228;-66
2022/11/01 18:32:55;;;;;;;15.80;10.30;;;;;;;14.91;61.40;99298.97;226787;1238;140512;-63
2022/11/01 18:38:25;;;;;;;16.00;10.50;;;;;;;14.81;61.28;99298.54;225687;1243;139911;-63
2022/11/01 18:43:33;;;;;;;17.60;11.60;;;;;;;14.71;61.40;99306.08;226773;1235;139168;-65
2022/11/01 18:48:36;;;;;;;18.90;11.70;;;;;;;14.63;61.56;99305.20;226361;1234;140310;-63
2022/11/01 18:53:39;;;;;;;18.00;11.10;;;;;;;14.57;61.81;99310.85;225528;1244;139908;-63
2022/11/01 18:58:42;;;;;;;18.90;11.90;;;;;;;14.48;61.87;99313.98;225830;1245;139839;-63
2022/11/01 19:03:55;;;;;;;17.00;12.20;;;;;;;14.45;61.89;99314.38;226763;1236;140537;-62
2022/11/01 19:09:08;;;;;;;19.30;11.70;;;;;;;14.46;61.95;99319.66;225741;1244;139877;-65
2022/11/01 19:14:19;;;;;;;20.70;12.40;;;;;;;14.42;62.14;99325.68;225749;1246;139282;-62
2022/11/01 19:19:22;;;;;;;22.40;14.20;;;;;;;14.38;62.12;99325.92;225678;1244;140715;-63
2022/11/01 19:24:33;;;;;;;20.30;12.60;;;;;;;14.33;62.23;99329.71;225736;1241;139504;-63
2022/11/01 19:29:36;;;;;;;18.00;12.50;;;;;;;14.29;62.31;99329.69;225879;1244;139477;-61
2022/11/01 19:34:40;;;;;;;35.90;22.10;;;;;;;14.23;62.41;99330.98;225790;1237;139384;-62
2022/11/01 19:39:43;;;;;;;38.90;26.40;;;;;;;14.21;62.52;99330.91;225797;1244;139186;-62
2022/11/01 19:44:46;;;;;;;20.80;13.70;;;;;;;14.20;62.63;99334.05;225645;1245;140317;-63
2022/11/01 19:49:49;;;;;;;17.10;13.40;;;;;;;14.22;62.72;99341.95;225494;1244;139563;-63
2022/11/01 19:54:53;;;;;;;20.60;13.80;;;;;;;14.17;62.79;99350.84;225780;1237;139099;-61
2022/11/01 20:00:11;;;;;;;20.10;13.50;;;;;;;14.14;62.86;99355.56;225737;1245;138964;-65
2022/11/01 20:05:20;;;;;;;23.60;14.30;;;;;;;14.12;63.13;99361.89;226879;1234;139223;-63
2022/11/01 20:10:23;;;;;;;23.80;13.20;;;;;;;14.11;63.11;99361.80;225811;1250;139718;-64
2022/11/01 20:15:26;;;;;;;20.90;13.00;;;;;;;14.10;63.11;99364.74;226773;1235;138942;-65
2022/11/01 20:20:30;;;;;;;20.20;13.50;;;;;;;14.09;63.04;99368.04;225622;1245;140428;-64
2022/11/01 20:25:32;;;;;;;20.40;13.00;;;;;;;14.05;63.13;99372.74;226767;1239;139429;-63
2022/11/01 20:30:35;;;;;;;21.70;13.60;;;;;;;14.09;63.21;99377.30;225719;1244;139975;-62
2022/11/01 20:35:38;;;;;;;23.00;13.80;;;;;;;14.13;63.41;99381.79;226802;1234;140045;-65
2022/11/01 20:40:41;;;;;;;20.00;13.50;;;;;;;14.17;63.45;99383.12;226908;1237;139695;-63
2022/11/01 20:45:44;;;;;;;22.90;14.10;;;;;;;14.17;63.33;99383.67;225803;1244;140386;-62
2022/11/01 20:50:47;;;;;;;20.00;14.00;;;;;;;14.13;63.39;99392.34;225815;1244;140247;-61
2022/11/01 20:55:50;;;;;;;28.80;14.80;;;;;;;14.10;63.53;99392.62;225808;1243;139639;-61
2022/11/01 21:00:53;;;;;;;23.20;13.80;;;;;;;14.04;63.37;99393.39;225763;1242;139906;-62
2022/11/01 21:05:56;;;;;;;21.10;13.40;;;;;;;13.97;63.57;99393.86;226675;1237;139102;-62
2022/11/01 21:11:02;;;;;;;22.80;14.20;;;;;;;13.97;63.60;99397.39;225890;1237;139645;-61
2022/11/01 21:16:18;;;;;;;20.70;14.00;;;;;;;14.02;63.75;99396.90;225607;1244;140917;-64
2022/11/01 21:21:36;;;;;;;20.90;14.80;;;;;;;14.06;63.81;99399.27;225810;1245;139656;-61
2022/11/01 21:26:44;;;;;;;25.60;13.90;;;;;;;14.05;63.77;99398.30;225688;1244;139376;-64
2022/11/01 21:31:47;;;;;;;23.90;14.10;;;;;;;14.00;63.58;99406.30;225825;1244;139428;-61
2022/11/01 21:36:51;;;;;;;28.20;15.40;;;;;;;13.95;63.69;99407.53;225797;1245;139336;-61
2022/11/01 21:41:59;;;;;;;24.30;15.60;;;;;;;13.91;63.58;99408.16;226750;1238;139702;-62
2022/11/01 21:47:21;;;;;;;22.80;15.70;;;;;;;13.81;63.46;99411.89;226771;1230;139529;-65
2022/11/01 21:52:24;;;;;;;20.10;14.70;;;;;;;13.73;63.62;99414.98;225763;1240;139470;-63
2022/11/01 21:57:27;;;;;;;26.90;15.80;;;;;;;13.72;63.84;99416.08;225494;1240;140415;-64
2022/11/01 22:02:30;;;;;;;23.50;14.30;;;;;;;13.76;63.82;99418.84;226731;1237;140379;-61
2022/11/01 22:07:33;;;;;;;22.60;14.90;;;;;;;13.78;63.97;99417.65;226768;1235;140003;-62
2022/11/01 22:12:36;;;;;;;21.40;14.70;;;;;;;13.84;64.21;99417.59;225698;1244;139387;-63
2022/11/01 22:17:39;;;;;;;20.30;14.80;;;;;;;13.87;64.00;99415.76;225680;1244;139322;-62
2022/11/01 22:22:41;;;;;;;19.80;13.40;;;;;;;13.88;64.13;99419.49;226580;1234;139774;-64
2022/11/01 22:27:44;;;;;;;22.60;15.00;;;;;;;13.80;63.96;99417.84;225556;1237;139216;-63
2022/11/01 22:32:47;;;;;;;22.80;14.90;;;;;;;13.76;64.06;99415.09;225396;1250;139589;-62
2022/11/01 22:37:50;;;;;;;20.20;13.50;;;;;;;13.78;63.92;99416.41;225387;1252;140454;-59
2022/11/01 22:42:56;;;;;;;24.00;14.70;;;;;;;13.84;64.27;99417.77;225313;1248;140036;-62
2022/11/01 22:47:59;;;;;;;23.90;14.30;;;;;;;13.90;64.21;99420.58;226489;1237;139617;-62
2022/11/01 22:53:07;;;;;;;21.30;15.00;;;;;;;13.92;64.28;99422.04;226691;1246;139515;-62
2022/11/01 22:58:33;;;;;;;23.60;14.20;;;;;;;13.92;64.29;99421.29;225535;1237;139648;-64
2022/11/01 23:03:40;;;;;;;23.50;15.30;;;;;;;13.92;64.42;99421.48;225391;1248;140771;-62
2022/11/01 23:08:43;;;;;;;23.50;15.70;;;;;;;13.94;64.40;99418.16;225424;1238;139403;-60
2022/11/01 23:14:47;;;;;;;20.80;14.30;;;;;;;13.97;64.37;99419.04;225404;1235;139351;-65
2022/11/01 23:19:18;;;;;;;20.00;14.80;;;;;;;14.04;64.35;99421.20;225337;1245;141578;-62